createdAt,value
2022-11-12T03:45:00.243Z,9.309390
2022-11-12T03:46:18.986Z,9.309367
2022-11-12T03:47:00.121Z,9.309317
2022-11-12T03:48:00.251Z,9.309293
2022-11-12T03:49:00.226Z,9.309276
2022-11-12T03:50:00.211Z,9.309058
2022-11-12T03:51:00.218Z,9.309067
2022-11-12T03:52:00.224Z,9.309128
2022-11-12T03:53:00.125Z,9.309127
2022-11-12T03:54:00.061Z,9.309009
2022-11-12T03:55:00.178Z,9.308986
2022-11-12T03:56:00.101Z,9.309073
2022-11-12T03:57:00.204Z,9.308982
2022-11-12T03:58:00.149Z,9.308946
2022-11-12T03:59:00.175Z,9.308810
2022-11-12T04:00:00.229Z,9.308914
2022-11-12T04:01:00.225Z,9.309067
2022-11-12T04:01:59.994Z,9.309161
2022-11-12T04:03:00.179Z,9.309171
2022-11-12T04:04:17.479Z,9.308928
2022-11-12T04:05:00.000Z,9.308990
2022-11-12T04:06:00.073Z,9.309051
2022-11-12T04:07:00.498Z,9.309064
2022-11-12T04:08:00.061Z,9.309052
2022-11-12T04:09:00.101Z,9.309049
2022-11-12T04:10:00.098Z,9.308977
2022-11-12T04:11:00.070Z,9.308969
2022-11-12T04:12:00.063Z,9.309064
2022-11-12T04:13:00.072Z,9.309182
2022-11-12T04:13:59.962Z,9.308909
2022-11-12T04:15:00.011Z,9.308908
2022-11-12T04:16:00.136Z,9.308954
2022-11-12T04:16:59.977Z,9.308981
2022-11-12T04:17:59.975Z,9.309034
2022-11-12T04:19:00.005Z,9.309057
2022-11-12T04:19:59.921Z,9.309102
2022-11-12T04:20:59.942Z,9.309052
2022-11-12T04:22:00.085Z,9.308947
2022-11-12T04:22:59.940Z,9.308948
2022-11-12T04:23:59.990Z,9.308989
2022-11-12T04:24:59.895Z,9.309152
2022-11-12T04:26:00.002Z,9.309159
2022-11-12T04:27:00.616Z,9.309113
2022-11-12T04:27:59.907Z,9.309122
2022-11-12T04:28:59.922Z,9.309142
2022-11-12T04:29:59.889Z,9.309061
2022-11-12T04:30:59.932Z,9.308989
2022-11-12T04:32:00.301Z,9.309025
2022-11-12T04:32:59.825Z,9.308979
2022-11-12T04:33:59.810Z,9.309003
2022-11-12T04:34:59.857Z,9.309103
2022-11-12T04:35:59.836Z,9.308941
2022-11-12T04:36:59.840Z,9.309033
2022-11-12T04:37:59.847Z,9.309046
2022-11-12T04:38:59.737Z,9.308993
2022-11-12T04:40:00.206Z,9.309063
2022-11-12T04:40:59.870Z,9.309175
2022-11-12T04:41:59.817Z,9.309098
2022-11-12T04:42:59.874Z,9.309019
2022-11-12T04:43:59.819Z,9.308930
2022-11-12T04:44:59.834Z,9.308904
2022-11-12T04:45:59.755Z,9.309102
2022-11-12T04:46:59.795Z,9.309138
2022-11-12T04:47:59.815Z,9.309136
2022-11-12T04:48:59.993Z,9.309236
2022-11-12T04:49:59.775Z,9.309052
2022-11-12T04:50:59.747Z,9.309006
2022-11-12T04:51:59.749Z,9.309101
2022-11-12T04:52:59.687Z,9.309180
2022-11-12T04:53:59.678Z,9.309168
2022-11-12T04:54:59.659Z,9.309175
2022-11-12T04:55:59.703Z,9.309058
2022-11-12T04:56:59.663Z,9.309055
2022-11-12T04:58:01.029Z,9.308931
2022-11-12T04:59:00.652Z,9.308948
2022-11-12T04:59:59.610Z,9.308843
2022-11-12T05:00:59.745Z,9.308908
2022-11-12T05:02:00.684Z,9.308928
2022-11-12T05:02:59.672Z,9.308911
2022-11-12T05:03:59.757Z,9.308866
2022-11-12T05:04:59.692Z,9.309056
2022-11-12T05:05:59.662Z,9.309246
2022-11-12T05:06:59.762Z,9.309175
2022-11-12T05:07:59.655Z,9.309061
2022-11-12T05:08:59.621Z,9.308920
2022-11-12T05:09:59.696Z,9.308887
2022-11-12T05:10:59.657Z,9.308851
2022-11-12T05:11:59.719Z,9.308851
2022-11-12T05:12:59.623Z,9.308902
2022-11-12T05:14:00.648Z,9.308854
2022-11-12T05:14:59.480Z,9.308671
2022-11-12T05:15:59.565Z,9.308855
2022-11-12T05:16:59.538Z,9.308995
2022-11-12T05:17:59.472Z,9.309027
2022-11-12T05:18:59.561Z,9.309114
2022-11-12T05:19:59.546Z,9.309086
2022-11-12T05:20:59.508Z,9.309100
2022-11-12T05:21:59.506Z,9.309101
2022-11-12T05:23:06.659Z,9.309081
2022-11-12T05:24:01.440Z,9.309008
2022-11-12T05:24:59.562Z,9.309070
2022-11-12T05:25:59.527Z,9.309041
2022-11-12T05:26:59.530Z,9.309114
2022-11-12T05:27:59.526Z,9.309109
2022-11-12T05:28:59.574Z,9.309052
2022-11-12T05:29:59.571Z,9.309110
2022-11-12T05:30:59.479Z,9.309072
2022-11-12T05:31:59.574Z,9.309045
2022-11-12T05:32:59.525Z,9.309074
2022-11-12T05:33:59.472Z,9.309085
2022-11-12T05:34:59.442Z,9.308969
2022-11-12T05:35:59.408Z,9.308963
2022-11-12T05:36:59.419Z,9.309031
2022-11-12T05:37:59.405Z,9.309082
2022-11-12T05:38:59.335Z,9.309174
2022-11-12T05:39:59.431Z,9.309181
2022-11-12T05:40:59.383Z,9.309094
2022-11-12T05:42:12.347Z,9.309118
2022-11-12T05:43:01.339Z,9.309161
2022-11-12T05:43:59.364Z,9.309062
2022-11-12T05:45:00.354Z,9.309158
2022-11-12T05:45:59.377Z,9.309118
2022-11-12T05:46:59.410Z,9.309119
2022-11-12T05:47:59.733Z,9.309066
2022-11-12T05:48:59.386Z,9.309049
2022-11-12T05:49:59.331Z,9.308981
2022-11-12T05:51:12.537Z,9.309050
2022-11-12T05:52:01.384Z,9.309085
2022-11-12T05:52:59.235Z,9.309075
2022-11-12T05:53:59.740Z,9.309112
2022-11-12T05:54:59.241Z,9.309052
2022-11-12T05:55:59.220Z,9.309085
2022-11-12T05:56:59.217Z,9.309222
2022-11-12T05:57:59.213Z,9.309067
2022-11-12T05:58:59.388Z,9.309213
2022-11-12T05:59:59.305Z,9.309186
2022-11-12T06:00:59.303Z,9.309125
2022-11-12T06:01:59.503Z,9.309086
2022-11-12T06:02:59.341Z,9.309104
2022-11-12T06:03:59.268Z,9.309104
2022-11-12T06:04:59.326Z,9.309128
2022-11-12T06:05:59.284Z,9.309166
2022-11-12T06:06:59.262Z,9.309109
2022-11-12T06:07:59.282Z,9.309169
2022-11-12T06:08:59.207Z,9.309172
2022-11-12T06:09:59.322Z,9.309175
2022-11-12T06:10:59.215Z,9.309145
2022-11-12T06:11:59.211Z,9.309127
2022-11-12T06:12:59.196Z,9.309189
2022-11-12T06:13:59.195Z,9.309068
2022-11-12T06:14:59.215Z,9.309022
2022-11-12T06:15:59.123Z,9.309217
2022-11-12T06:16:59.110Z,9.309207
2022-11-12T06:17:59.059Z,9.309078
2022-11-12T06:18:59.114Z,9.309113
2022-11-12T06:19:59.030Z,9.309071
2022-11-12T06:20:59.101Z,9.309056
2022-11-12T06:21:59.014Z,9.309072
2022-11-12T06:22:59.123Z,9.309104
2022-11-12T06:23:59.158Z,9.309004
2022-11-12T06:24:59.024Z,9.309066
2022-11-12T06:25:59.158Z,9.309007
2022-11-12T06:26:59.085Z,9.309094
2022-11-12T06:27:59.131Z,9.309043
2022-11-12T06:28:59.129Z,9.309015
2022-11-12T06:29:59.067Z,9.308982
2022-11-12T06:30:59.089Z,9.308998
2022-11-12T06:31:59.141Z,9.308984
2022-11-12T06:32:59.080Z,9.309052
2022-11-12T06:33:59.059Z,9.309092
2022-11-12T06:34:59.150Z,9.308954
2022-11-12T06:35:59.036Z,9.308970
2022-11-12T06:36:59.133Z,9.309088
2022-11-12T06:37:59.016Z,9.309047
2022-11-12T06:38:58.975Z,9.309003
2022-11-12T06:39:59.005Z,9.309050
2022-11-12T06:40:59.003Z,9.309041
2022-11-12T06:41:58.924Z,9.309080
2022-11-12T06:42:59.927Z,9.309046
2022-11-12T06:43:58.919Z,9.309025
2022-11-12T06:44:58.959Z,9.309031
2022-11-12T06:45:58.960Z,9.309089
2022-11-12T06:46:59.052Z,9.309065
2022-11-12T06:47:58.973Z,9.309111
2022-11-12T06:48:58.925Z,9.309064
2022-11-12T06:49:58.911Z,9.309085
2022-11-12T06:50:58.909Z,9.309018
2022-11-12T06:51:58.880Z,9.309041
2022-11-12T06:52:58.926Z,9.309050
2022-11-12T06:53:59.968Z,9.309060
2022-11-12T06:54:58.854Z,9.309060
2022-11-12T06:55:59.026Z,9.309119
2022-11-12T06:56:58.873Z,9.309083
2022-11-12T06:57:58.899Z,9.309056
2022-11-12T06:58:58.967Z,9.309062
2022-11-12T06:59:58.760Z,9.309076
2022-11-12T07:00:58.779Z,9.309099
2022-11-12T07:01:58.820Z,9.309062
2022-11-12T07:02:58.940Z,9.309077
2022-11-12T07:03:58.756Z,9.309111
2022-11-12T07:04:58.741Z,9.309138
2022-11-12T07:05:58.717Z,9.309104
2022-11-12T07:06:58.784Z,9.308997
2022-11-12T07:07:58.713Z,9.308988
2022-11-12T07:08:58.798Z,9.309100
2022-11-12T07:09:59.695Z,9.309145
2022-11-12T07:10:58.794Z,9.309040
2022-11-12T07:11:58.817Z,9.309046
2022-11-12T07:12:58.762Z,9.309082
2022-11-12T07:13:58.778Z,9.309084
2022-11-12T07:14:58.772Z,9.309031
2022-11-12T07:15:58.824Z,9.309093
2022-11-12T07:16:58.715Z,9.309058
2022-11-12T07:17:58.657Z,9.309011
2022-11-12T07:18:58.769Z,9.309007
2022-11-12T07:20:03.400Z,9.309036
2022-11-12T07:21:01.708Z,9.309018
2022-11-12T07:21:58.723Z,9.309006
2022-11-12T07:22:58.618Z,9.309004
2022-11-12T07:23:58.657Z,9.309039
2022-11-12T07:24:58.606Z,9.309183
2022-11-12T07:25:58.807Z,9.309122
2022-11-12T07:26:58.594Z,9.309101
2022-11-12T07:27:58.653Z,9.309073
2022-11-12T07:28:58.611Z,9.309091
2022-11-12T07:29:58.573Z,9.309141
2022-11-12T07:30:58.667Z,9.309151
2022-11-12T07:31:58.701Z,9.309105
2022-11-12T07:32:58.659Z,9.309059
2022-11-12T07:33:59.662Z,9.309035
2022-11-12T07:34:58.684Z,9.309041
2022-11-12T07:35:58.585Z,9.309075
2022-11-12T07:36:58.646Z,9.309037
2022-11-12T07:37:59.809Z,9.309128
2022-11-12T07:38:59.574Z,9.309072
2022-11-12T07:39:58.606Z,9.309138
2022-11-12T07:40:58.536Z,9.309062
2022-11-12T07:41:58.560Z,9.309052
2022-11-12T07:42:58.601Z,9.309064
2022-11-12T07:43:58.583Z,9.308998
2022-11-12T07:44:58.560Z,9.309029
2022-11-12T07:45:58.497Z,9.309052
2022-11-12T07:46:58.447Z,9.309120
2022-11-12T07:47:58.464Z,9.309071
2022-11-12T07:48:58.429Z,9.309075
2022-11-12T07:49:58.412Z,9.309051
2022-11-12T07:50:58.545Z,9.309084
2022-11-12T07:51:58.359Z,9.309021
2022-11-12T07:53:28.865Z,9.309040
2022-11-12T07:53:59.877Z,9.309033
2022-11-12T07:54:59.405Z,9.309084
2022-11-12T07:55:58.404Z,9.309012
2022-11-12T07:56:58.403Z,9.309047
2022-11-12T07:57:58.452Z,9.309096
2022-11-12T07:58:58.585Z,9.309062
2022-11-12T07:59:58.461Z,9.309124
2022-11-12T08:00:58.384Z,9.309081
2022-11-12T08:01:58.456Z,9.309116
2022-11-12T08:02:58.420Z,9.309127
2022-11-12T08:03:58.458Z,9.309067
2022-11-12T08:04:58.466Z,9.309068
2022-11-12T08:05:58.416Z,9.309102
2022-11-12T08:06:58.515Z,9.309114
2022-11-12T08:07:58.500Z,9.309108
2022-11-12T08:08:58.404Z,9.309041
2022-11-12T08:09:58.442Z,9.308914
2022-11-12T08:10:58.383Z,9.308840
2022-11-12T08:11:58.258Z,9.308868
2022-11-12T08:12:58.326Z,9.308913
2022-11-12T08:13:58.453Z,9.308967
2022-11-12T08:14:58.342Z,9.308947
2022-11-12T08:15:58.309Z,9.309057
2022-11-12T08:16:58.255Z,9.309031
2022-11-12T08:17:58.235Z,9.309054
2022-11-12T08:18:58.216Z,9.309217
2022-11-12T08:19:58.347Z,9.309065
2022-11-12T08:20:58.354Z,9.308948
2022-11-12T08:21:58.274Z,9.308910
2022-11-12T08:22:58.269Z,9.308855
2022-11-12T08:23:58.300Z,9.309051
2022-11-12T08:25:01.570Z,9.309058
2022-11-12T08:25:58.301Z,9.309053
2022-11-12T08:26:58.522Z,9.309071
2022-11-12T08:27:58.251Z,9.308990
2022-11-12T08:28:58.320Z,9.309059
2022-11-12T08:29:58.192Z,9.309046
2022-11-12T08:30:58.221Z,9.309070
2022-11-12T08:31:58.327Z,9.309129
2022-11-12T08:32:58.259Z,9.309105
2022-11-12T08:33:58.190Z,9.309063
2022-11-12T08:34:58.270Z,9.309041
2022-11-12T08:35:58.215Z,9.309067
2022-11-12T08:36:58.090Z,9.309089
2022-11-12T08:37:58.107Z,9.309065
2022-11-12T08:38:58.147Z,9.309070
2022-11-12T08:39:58.128Z,9.309151
2022-11-12T08:40:58.171Z,9.309067
2022-11-12T08:41:58.169Z,9.309080
2022-11-12T08:42:58.172Z,9.309079
2022-11-12T08:43:58.141Z,9.308918
2022-11-12T08:44:58.123Z,9.308908
2022-11-12T08:45:58.125Z,9.308863
2022-11-12T08:46:58.126Z,9.308719
2022-11-12T08:47:58.178Z,9.308845
2022-11-12T08:48:58.179Z,9.309000
2022-11-12T08:49:58.112Z,9.308967
2022-11-12T08:50:58.098Z,9.308910
2022-11-12T08:51:58.122Z,9.309011
2022-11-12T08:52:58.085Z,9.308971
2022-11-12T08:53:58.169Z,9.308872
2022-11-12T08:54:58.054Z,9.308327
2022-11-12T08:55:58.132Z,9.308860
2022-11-12T08:56:58.067Z,9.308866
2022-11-12T08:57:58.138Z,9.308957
2022-11-12T08:58:58.054Z,9.308983
2022-11-12T08:59:58.219Z,9.309011
2022-11-12T09:00:57.872Z,9.308963
2022-11-12T09:01:57.928Z,9.309003
2022-11-12T09:02:58.043Z,9.309010
2022-11-12T09:03:57.950Z,9.309194
2022-11-12T09:04:57.928Z,9.309143
2022-11-12T09:05:57.916Z,9.309026
2022-11-12T09:06:57.924Z,9.308902
2022-11-12T09:07:57.905Z,9.308897
2022-11-12T09:08:57.995Z,9.308935
2022-11-12T09:09:58.024Z,9.309038
2022-11-12T09:10:57.990Z,9.308912
2022-11-12T09:11:57.980Z,9.309021
2022-11-12T09:12:57.949Z,9.308954
2022-11-12T09:13:57.944Z,9.308960
2022-11-12T09:15:09.711Z,9.309016
2022-11-12T09:15:59.910Z,9.309067
2022-11-12T09:16:57.932Z,9.308984
2022-11-12T09:17:57.917Z,9.308990
2022-11-12T09:18:57.977Z,9.308975
2022-11-12T09:19:57.910Z,9.309056
2022-11-12T09:20:58.003Z,9.309060
2022-11-12T09:21:57.809Z,9.309024
2022-11-12T09:22:57.982Z,9.308936
2022-11-12T09:23:57.893Z,9.309020
2022-11-12T09:24:57.952Z,9.309012
2022-11-12T09:25:57.824Z,9.309031
2022-11-12T09:26:57.974Z,9.309027
2022-11-12T09:27:57.752Z,9.308996
2022-11-12T09:28:57.745Z,9.308989
2022-11-12T09:29:57.842Z,9.309010
2022-11-12T09:30:57.752Z,9.308999
2022-11-12T09:31:57.780Z,9.309027
2022-11-12T09:32:57.760Z,9.309067
2022-11-12T09:33:57.844Z,9.309077
2022-11-12T09:34:57.871Z,9.309114
2022-11-12T09:35:57.882Z,9.309151
2022-11-12T09:36:57.797Z,9.309039
2022-11-12T09:37:57.767Z,9.309018
2022-11-12T09:38:57.792Z,9.309085
2022-11-12T09:39:57.824Z,9.309031
2022-11-12T09:40:57.705Z,9.308975
2022-11-12T09:42:01.787Z,9.309016
2022-11-12T09:42:58.794Z,9.308961
2022-11-12T09:43:57.786Z,9.309031
2022-11-12T09:44:57.743Z,9.308994
2022-11-12T09:46:27.284Z,9.308994
2022-11-12T09:46:59.610Z,9.309002
2022-11-12T09:47:57.585Z,9.309082
2022-11-12T09:48:57.659Z,9.309022
2022-11-12T09:49:57.678Z,9.309078
2022-11-12T09:50:57.650Z,9.308989
2022-11-12T09:51:58.631Z,9.308993
2022-11-12T09:52:57.579Z,9.309013
2022-11-12T09:53:57.686Z,9.308969
2022-11-12T09:54:57.676Z,9.309007
2022-11-12T09:55:57.593Z,9.309092
2022-11-12T09:56:57.643Z,9.309067
2022-11-12T09:57:57.580Z,9.309003
2022-11-12T09:58:57.577Z,9.309005
2022-11-12T09:59:57.971Z,9.309119
2022-11-12T10:00:57.608Z,9.309057
2022-11-12T10:01:57.546Z,9.309116
2022-11-12T10:02:57.645Z,9.309122
2022-11-12T10:03:57.623Z,9.309022
2022-11-12T10:04:57.653Z,9.309089
2022-11-12T10:05:57.634Z,9.309068
2022-11-12T10:06:57.731Z,9.309058
2022-11-12T10:07:57.636Z,9.309093
2022-11-12T10:08:57.808Z,9.309053
2022-11-12T10:09:57.526Z,9.309143
2022-11-12T10:10:57.674Z,9.309047
2022-11-12T10:12:02.789Z,9.309035
2022-11-12T10:12:59.731Z,9.309023
2022-11-12T10:13:58.653Z,9.308995
2022-11-12T10:14:57.411Z,9.309053
2022-11-12T10:15:57.423Z,9.309065
2022-11-12T10:16:57.516Z,9.309133
2022-11-12T10:17:57.483Z,9.309046
2022-11-12T10:18:57.539Z,9.309074
2022-11-12T10:19:57.526Z,9.309064
2022-11-12T10:20:57.511Z,9.309153
2022-11-12T10:21:57.458Z,9.309106
2022-11-12T10:22:57.544Z,9.309070
2022-11-12T10:23:57.537Z,9.309084
2022-11-12T10:24:57.765Z,9.309059
2022-11-12T10:25:57.522Z,9.309075
2022-11-12T10:26:57.665Z,9.309114
2022-11-12T10:27:57.394Z,9.309148
2022-11-12T10:28:57.429Z,9.309118
2022-11-12T10:29:57.473Z,9.309102
2022-11-12T10:30:57.454Z,9.309143
2022-11-12T10:31:57.590Z,9.309104
2022-11-12T10:32:57.388Z,9.309083
2022-11-12T10:33:57.434Z,9.309089
2022-11-12T10:34:57.356Z,9.309110
2022-11-12T10:35:57.355Z,9.309135
2022-11-12T10:36:57.309Z,9.309045
2022-11-12T10:37:57.293Z,9.309036
2022-11-12T10:38:57.284Z,9.309037
2022-11-12T10:39:57.319Z,9.309108
2022-11-12T10:40:57.326Z,9.309116
2022-11-12T10:41:57.298Z,9.309094
2022-11-12T10:42:57.342Z,9.309103
2022-11-12T10:43:57.346Z,9.309037
2022-11-12T10:44:57.320Z,9.309080
2022-11-12T10:45:57.317Z,9.309162
2022-11-12T10:46:57.325Z,9.309083
2022-11-12T10:47:57.261Z,9.309093
2022-11-12T10:48:57.334Z,9.309113
2022-11-12T10:49:57.231Z,9.309060
2022-11-12T10:50:57.271Z,9.309042
2022-11-12T10:51:57.285Z,9.309021
2022-11-12T10:52:57.384Z,9.309034
2022-11-12T10:53:57.317Z,9.309053
2022-11-12T10:54:57.301Z,9.309039
2022-11-12T10:55:57.302Z,9.309067
2022-11-12T10:56:57.326Z,9.309033
2022-11-12T10:57:57.239Z,9.309017
2022-11-12T10:58:57.236Z,9.309052
2022-11-12T10:59:57.257Z,9.309036
2022-11-12T11:00:57.197Z,9.309081
2022-11-12T11:01:57.253Z,9.309169
2022-11-12T11:02:57.285Z,9.309122
2022-11-12T11:03:57.125Z,9.309120
2022-11-12T11:04:57.442Z,9.309050
2022-11-12T11:05:57.177Z,9.309064
2022-11-12T11:06:57.228Z,9.309071
2022-11-12T11:07:57.158Z,9.309070
2022-11-12T11:08:57.249Z,9.309058
2022-11-12T11:09:57.108Z,9.309052
2022-11-12T11:10:57.427Z,9.309120
2022-11-12T11:11:57.109Z,9.309104
2022-11-12T11:12:57.088Z,9.309080
2022-11-12T11:13:57.177Z,9.309092
2022-11-12T11:14:57.076Z,9.309087
2022-11-12T11:15:57.202Z,9.309068
2022-11-12T11:16:57.145Z,9.309136
2022-11-12T11:17:57.179Z,9.309124
2022-11-12T11:18:57.075Z,9.309130
2022-11-12T11:19:57.191Z,9.309162
2022-11-12T11:20:57.054Z,9.309109
2022-11-12T11:21:57.132Z,9.309184
2022-11-12T11:22:57.153Z,9.309145
2022-11-12T11:23:57.104Z,9.309010
2022-11-12T11:24:57.064Z,9.309061
2022-11-12T11:25:57.208Z,9.309100
2022-11-12T11:26:57.141Z,9.309157
2022-11-12T11:27:57.071Z,9.309154
2022-11-12T11:28:57.060Z,9.309139
2022-11-12T11:29:56.992Z,9.309078
2022-11-12T11:30:56.992Z,9.309069
2022-11-12T11:31:57.098Z,9.309151
2022-11-12T11:32:57.036Z,9.309089
2022-11-12T11:33:57.012Z,9.309084
2022-11-12T11:34:57.493Z,9.309032
2022-11-12T11:35:57.260Z,9.309145
2022-11-12T11:36:56.977Z,9.309134
2022-11-12T11:37:58.583Z,9.309166
2022-11-12T11:38:58.043Z,9.309194
2022-11-12T11:39:56.844Z,9.309119
2022-11-12T11:40:56.866Z,9.309066
2022-11-12T11:41:56.783Z,9.309141
2022-11-12T11:42:56.835Z,9.309106
2022-11-12T11:43:56.935Z,9.308990
2022-11-12T11:44:56.807Z,9.309059
2022-11-12T11:45:56.755Z,9.309027
2022-11-12T11:46:56.803Z,9.309024
2022-11-12T11:48:01.771Z,9.309101
2022-11-12T11:48:58.826Z,9.309067
2022-11-12T11:49:56.892Z,9.309103
2022-11-12T11:50:56.882Z,9.309178
2022-11-12T11:51:56.855Z,9.309116
2022-11-12T11:52:57.052Z,9.309203
2022-11-12T11:53:56.921Z,9.309178
2022-11-12T11:54:56.866Z,9.309023
2022-11-12T11:55:56.809Z,9.308999
2022-11-12T11:56:56.829Z,9.309085
2022-11-12T11:57:56.893Z,9.309154
2022-11-12T11:58:56.809Z,9.309042
2022-11-12T11:59:56.951Z,9.309080
2022-11-12T12:00:56.845Z,9.309051
2022-11-12T12:01:56.743Z,9.308998
2022-11-12T12:02:56.834Z,9.309131
2022-11-12T12:03:56.803Z,9.309065
2022-11-12T12:04:56.852Z,9.309097
2022-11-12T12:05:56.850Z,9.308975
2022-11-12T12:06:56.768Z,9.309000
2022-11-12T12:07:56.769Z,9.309073
2022-11-12T12:08:56.745Z,9.309036
2022-11-12T12:09:56.727Z,9.308829
2022-11-12T12:11:12.270Z,9.308659
2022-11-12T12:11:58.812Z,9.308906
2022-11-12T12:12:56.745Z,9.308892
2022-11-12T12:13:56.763Z,9.308853
2022-11-12T12:14:56.703Z,9.309024
2022-11-12T12:15:57.112Z,9.308980
2022-11-12T12:16:56.739Z,9.308912
2022-11-12T12:17:56.789Z,9.308886
2022-11-12T12:18:56.696Z,9.308903
2022-11-12T12:19:56.633Z,9.308902
2022-11-12T12:20:56.665Z,9.308969
2022-11-12T12:21:57.721Z,9.308949
2022-11-12T12:22:56.731Z,9.308855
2022-11-12T12:23:56.724Z,9.308873
2022-11-12T12:24:56.609Z,9.308989
2022-11-12T12:26:00.270Z,9.308953
2022-11-12T12:26:58.697Z,9.308992
2022-11-12T12:27:56.631Z,9.309030
2022-11-12T12:28:56.709Z,9.309120
2022-11-12T12:29:56.797Z,9.309046
2022-11-12T12:30:56.555Z,9.309103
2022-11-12T12:31:56.609Z,9.309093
2022-11-12T12:32:56.633Z,9.309094
2022-11-12T12:33:56.617Z,9.309024
2022-11-12T12:34:56.598Z,9.309037
2022-11-12T12:35:56.519Z,9.309108
2022-11-12T12:36:56.407Z,9.309102
2022-11-12T12:37:56.488Z,9.309155
2022-11-12T12:38:56.533Z,9.309068
2022-11-12T12:39:56.513Z,9.308968
2022-11-12T12:40:56.513Z,9.309116
2022-11-12T12:41:56.512Z,9.309137
2022-11-12T12:42:56.468Z,9.309177
2022-11-12T12:43:56.503Z,9.309139
2022-11-12T12:44:56.537Z,9.309135
2022-11-12T12:45:56.445Z,9.309171
2022-11-12T12:46:56.477Z,9.309164
2022-11-12T12:47:56.580Z,9.309279
2022-11-12T12:48:56.490Z,9.309174
2022-11-12T12:49:56.482Z,9.309175
2022-11-12T12:50:56.420Z,9.309150
2022-11-12T12:51:56.398Z,9.309126
2022-11-12T12:52:56.307Z,9.309208
2022-11-12T12:53:56.243Z,9.309444
2022-11-12T12:54:56.477Z,9.309299
2022-11-12T12:55:56.335Z,9.309161
2022-11-12T12:56:56.318Z,9.309175
2022-11-12T12:57:56.304Z,9.309173
2022-11-12T12:58:56.398Z,9.309264
2022-11-12T12:59:56.382Z,9.309160
2022-11-12T13:00:56.363Z,9.309227
2022-11-12T13:01:56.242Z,9.309213
2022-11-12T13:02:56.389Z,9.309221
2022-11-12T13:03:56.405Z,9.309148
2022-11-12T13:04:56.491Z,9.308990
2022-11-12T13:05:56.425Z,9.309031
2022-11-12T13:06:56.473Z,9.309199
2022-11-12T13:07:56.246Z,9.309187
2022-11-12T13:08:56.286Z,9.309050
2022-11-12T13:09:56.278Z,9.309158
2022-11-12T13:10:56.360Z,9.309166
2022-11-12T13:11:56.173Z,9.309074
2022-11-12T13:12:56.157Z,9.308981
2022-11-12T13:13:56.305Z,9.309037
2022-11-12T13:14:56.310Z,9.309119
2022-11-12T13:15:56.288Z,9.309074
2022-11-12T13:16:56.197Z,9.309209
2022-11-12T13:17:56.210Z,9.309134
2022-11-12T13:18:56.250Z,9.309139
2022-11-12T13:19:56.289Z,9.309209
2022-11-12T13:20:56.209Z,9.309207
2022-11-12T13:21:57.251Z,9.309193
2022-11-12T13:22:56.178Z,9.309146
2022-11-12T13:23:56.222Z,9.309069
2022-11-12T13:24:56.296Z,9.309132
2022-11-12T13:25:56.141Z,9.309185
2022-11-12T13:26:56.165Z,9.309041
2022-11-12T13:27:56.169Z,9.309093
2022-11-12T13:28:56.125Z,9.309132
2022-11-12T13:29:56.169Z,9.309185
2022-11-12T13:30:56.011Z,9.309050
2022-11-12T13:31:56.027Z,9.309116
2022-11-12T13:32:56.148Z,9.309050
2022-11-12T13:33:56.035Z,9.309150
2022-11-12T13:34:56.025Z,9.309185
2022-11-12T13:35:56.193Z,9.309177
2022-11-12T13:36:56.104Z,9.309163
2022-11-12T13:37:56.260Z,9.309180
2022-11-12T13:39:00.090Z,9.309169
2022-11-12T13:39:58.162Z,9.309154
2022-11-12T13:40:56.114Z,9.309157
2022-11-12T13:41:56.133Z,9.309123
2022-11-12T13:42:56.098Z,9.309171
2022-11-12T13:43:56.122Z,9.309130
2022-11-12T13:44:56.360Z,9.309160
2022-11-12T13:45:57.050Z,9.309172
2022-11-12T13:46:56.147Z,9.309109
2022-11-12T13:47:56.078Z,9.309066
2022-11-12T13:48:56.140Z,9.309122
2022-11-12T13:49:56.040Z,9.309147
2022-11-12T13:50:55.946Z,9.309129
2022-11-12T13:51:56.008Z,9.309202
2022-11-12T13:52:55.938Z,9.309101
2022-11-12T13:53:55.870Z,9.309138
2022-11-12T13:54:55.892Z,9.309128
2022-11-12T13:55:55.961Z,9.309229
2022-11-12T13:56:56.051Z,9.309199
2022-11-12T13:57:55.962Z,9.309169
2022-11-12T13:58:56.065Z,9.309206
2022-11-12T13:59:55.959Z,9.309139
2022-11-12T14:00:56.105Z,9.309186
2022-11-12T14:01:56.011Z,9.309186
2022-11-12T14:02:55.987Z,9.309131
2022-11-12T14:03:55.942Z,9.309199
2022-11-12T14:04:56.038Z,9.309170
2022-11-12T14:05:55.992Z,9.309182
2022-11-12T14:06:55.975Z,9.309132
2022-11-12T14:07:55.955Z,9.309120
2022-11-12T14:08:55.880Z,9.309108
2022-11-12T14:09:55.894Z,9.309041
2022-11-12T14:10:55.999Z,9.309080
2022-11-12T14:11:55.866Z,9.309095
2022-11-12T14:12:55.803Z,9.309128
2022-11-12T14:13:55.877Z,9.309084
2022-11-12T14:14:55.855Z,9.308993
2022-11-12T14:15:56.826Z,9.309176
2022-11-12T14:16:55.715Z,9.309205
2022-11-12T14:17:55.845Z,9.309110
2022-11-12T14:18:55.694Z,9.309110
2022-11-12T14:19:55.684Z,9.309246
2022-11-12T14:20:55.989Z,9.309179
2022-11-12T14:21:55.747Z,9.309187
2022-11-12T14:22:56.668Z,9.309212
2022-11-12T14:23:55.721Z,9.309164
2022-11-12T14:24:55.778Z,9.308999
2022-11-12T14:25:55.761Z,9.308523
2022-11-12T14:26:55.912Z,9.308862
2022-11-12T14:27:55.778Z,9.309031
2022-11-12T14:28:55.796Z,9.309114
2022-11-12T14:29:55.742Z,9.309177
2022-11-12T14:30:55.844Z,9.309085
2022-11-12T14:31:55.688Z,9.309245
2022-11-12T14:32:55.727Z,9.309124
2022-11-12T14:33:55.689Z,9.309046
2022-11-12T14:34:55.729Z,9.309100
2022-11-12T14:35:55.699Z,9.309145
2022-11-12T14:36:55.730Z,9.309112
2022-11-12T14:37:55.669Z,9.309168
2022-11-12T14:38:55.743Z,9.309216
2022-11-12T14:39:55.682Z,9.309183
2022-11-12T14:40:55.744Z,9.309148
2022-11-12T14:41:55.610Z,9.309162
2022-11-12T14:42:55.699Z,9.309154
2022-11-12T14:44:11.372Z,9.309158
2022-11-12T14:44:57.575Z,9.309094
2022-11-12T14:45:55.528Z,9.309154
2022-11-12T14:46:55.542Z,9.309180
2022-11-12T14:47:55.574Z,9.309113
2022-11-12T14:48:55.588Z,9.309082
2022-11-12T14:49:55.551Z,9.309057
2022-11-12T14:50:56.059Z,9.309061
2022-11-12T14:51:55.603Z,9.309043
2022-11-12T14:52:55.569Z,9.309122
2022-11-12T14:53:55.857Z,9.309138
2022-11-12T14:54:55.554Z,9.309222
2022-11-12T14:55:55.617Z,9.309134
2022-11-12T14:56:55.551Z,9.309130
2022-11-12T14:57:55.572Z,9.309066
2022-11-12T14:58:55.690Z,9.309051
2022-11-12T14:59:56.353Z,9.309113
2022-11-12T15:00:55.602Z,9.309097
2022-11-12T15:02:59.781Z,9.309064
2022-11-12T15:03:56.849Z,9.309011
2022-11-12T15:04:55.517Z,9.309062
2022-11-12T15:05:55.528Z,9.309095
2022-11-12T15:06:55.518Z,9.309016
2022-11-12T15:07:55.477Z,9.309064
2022-11-12T15:08:55.568Z,9.309044
2022-11-12T15:09:55.567Z,9.309031
2022-11-12T15:10:55.478Z,9.309088
2022-11-12T15:11:55.467Z,9.309070
2022-11-12T15:12:55.636Z,9.309090
2022-11-12T15:13:55.312Z,9.309114
2022-11-12T15:14:55.408Z,9.309075
2022-11-12T15:15:55.416Z,9.309119
2022-11-12T15:16:55.289Z,9.309064
2022-11-12T15:17:55.383Z,9.309064
2022-11-12T15:18:55.328Z,9.309065
2022-11-12T15:19:55.327Z,9.309106
2022-11-12T15:20:59.458Z,9.309099
2022-11-12T15:21:56.226Z,9.309097
2022-11-12T15:22:55.347Z,9.309073
2022-11-12T15:23:55.472Z,9.309065
2022-11-12T15:24:55.471Z,9.309072
2022-11-12T15:25:55.532Z,9.309087
2022-11-12T15:26:55.468Z,9.309074
2022-11-12T15:27:55.329Z,9.308992
2022-11-12T15:28:55.332Z,9.308975
2022-11-12T15:29:55.373Z,9.308988